sensor_id;sensor_type;location;lat;lon;timestamp;P1;durP1;ratioP1;P2;durP2;ratioP2
8536;SDS011;4306;50.210;10.628;2023-03-03T00:01:55;21.60;;;9.87;;
8536;SDS011;4306;50.210;10.628;2023-03-03T00:04:22;19.40;;;9.67;;
8536;SDS011;4306;50.210;10.628;2023-03-03T00:06:49;15.97;;;8.20;;
8536;SDS011;4306;50.210;10.628;2023-03-03T00:09:16;24.50;;;10.70;;
8536;SDS011;4306;50.210;10.628;2023-03-03T00:11:44;20.60;;;9.60;;
8536;SDS011;4306;50.210;10.628;2023-03-03T00:14:17;30.03;;;12.90;;
8536;SDS011;4306;50.210;10.628;2023-03-03T00:16:47;38.27;;;17.83;;
8536;SDS011;4306;50.210;10.628;2023-03-03T00:19:16;23.70;;;11.17;;
8536;SDS011;4306;50.210;10.628;2023-03-03T00:21:45;16.50;;;8.77;;
8536;SDS011;4306;50.210;10.628;2023-03-03T00:24:17;21.70;;;10.80;;
8536;SDS011;4306;50.210;10.628;2023-03-03T00:26:47;34.87;;;15.10;;
8536;SDS011;4306;50.210;10.628;2023-03-03T00:29:22;33.53;;;16.23;;
8536;SDS011;4306;50.210;10.628;2023-03-03T00:32:07;29.73;;;14.30;;
8536;SDS011;4306;50.210;10.628;2023-03-03T00:34:42;35.83;;;15.63;;
8536;SDS011;4306;50.210;10.628;2023-03-03T00:37:18;28.87;;;14.00;;
8536;SDS011;4306;50.210;10.628;2023-03-03T00:39:48;35.87;;;14.97;;
8536;SDS011;4306;50.210;10.628;2023-03-03T00:42:17;34.73;;;14.77;;
8536;SDS011;4306;50.210;10.628;2023-03-03T00:44:44;32.97;;;13.40;;
8536;SDS011;4306;50.210;10.628;2023-03-03T00:50:23;27.97;;;13.10;;
8536;SDS011;4306;50.210;10.628;2023-03-03T00:52:58;32.37;;;13.83;;
8536;SDS011;4306;50.210;10.628;2023-03-03T00:55:27;31.67;;;13.73;;
8536;SDS011;4306;50.210;10.628;2023-03-03T00:57:55;34.87;;;13.67;;
8536;SDS011;4306;50.210;10.628;2023-03-03T01:00:22;26.87;;;12.50;;
8536;SDS011;4306;50.210;10.628;2023-03-03T01:02:48;26.33;;;11.73;;
8536;SDS011;4306;50.210;10.628;2023-03-03T01:05:16;25.13;;;11.30;;
8536;SDS011;4306;50.210;10.628;2023-03-03T01:07:45;26.27;;;11.23;;
8536;SDS011;4306;50.210;10.628;2023-03-03T01:10:12;25.67;;;11.73;;
8536;SDS011;4306;50.210;10.628;2023-03-03T01:12:39;22.23;;;10.47;;
8536;SDS011;4306;50.210;10.628;2023-03-03T01:15:07;23.70;;;10.83;;
8536;SDS011;4306;50.210;10.628;2023-03-03T01:17:35;23.27;;;11.53;;
8536;SDS011;4306;50.210;10.628;2023-03-03T01:20:04;22.73;;;11.87;;
8536;SDS011;4306;50.210;10.628;2023-03-03T01:22:31;23.23;;;11.30;;
8536;SDS011;4306;50.210;10.628;2023-03-03T01:24:59;23.13;;;11.50;;
8536;SDS011;4306;50.210;10.628;2023-03-03T01:27:28;24.63;;;12.03;;
8536;SDS011;4306;50.210;10.628;2023-03-03T01:29:55;21.67;;;11.43;;
8536;SDS011;4306;50.210;10.628;2023-03-03T01:32:22;24.03;;;11.70;;
8536;SDS011;4306;50.210;10.628;2023-03-03T01:34:52;22.57;;;10.30;;
8536;SDS011;4306;50.210;10.628;2023-03-03T01:37:19;29.10;;;12.47;;
8536;SDS011;4306;50.210;10.628;2023-03-03T01:39:49;38.17;;;15.53;;
8536;SDS011;4306;50.210;10.628;2023-03-03T01:42:18;30.00;;;13.77;;
8536;SDS011;4306;50.210;10.628;2023-03-03T01:44:46;26.50;;;12.47;;
8536;SDS011;4306;50.210;10.628;2023-03-03T01:47:13;27.07;;;11.63;;
8536;SDS011;4306;50.210;10.628;2023-03-03T01:49:43;28.03;;;12.23;;
8536;SDS011;4306;50.210;10.628;2023-03-03T01:52:13;24.70;;;11.13;;
8536;SDS011;4306;50.210;10.628;2023-03-03T01:54:52;24.17;;;11.63;;
8536;SDS011;4306;50.210;10.628;2023-03-03T01:57:24;21.70;;;11.37;;
8536;SDS011;4306;50.210;10.628;2023-03-03T01:59:55;23.93;;;11.77;;
8536;SDS011;4306;50.210;10.628;2023-03-03T02:02:24;24.53;;;11.37;;
8536;SDS011;4306;50.210;10.628;2023-03-03T02:04:53;23.47;;;10.53;;
8536;SDS011;4306;50.210;10.628;2023-03-03T02:07:20;22.50;;;11.23;;
8536;SDS011;4306;50.210;10.628;2023-03-03T02:09:51;25.67;;;11.73;;
8536;SDS011;4306;50.210;10.628;2023-03-03T02:12:25;20.57;;;10.27;;
8536;SDS011;4306;50.210;10.628;2023-03-03T02:14:57;25.23;;;11.43;;
8536;SDS011;4306;50.210;10.628;2023-03-03T02:17:24;27.07;;;12.10;;
8536;SDS011;4306;50.210;10.628;2023-03-03T02:19:53;28.73;;;12.03;;
8536;SDS011;4306;50.210;10.628;2023-03-03T02:22:28;25.67;;;11.53;;
8536;SDS011;4306;50.210;10.628;2023-03-03T02:24:59;21.50;;;10.93;;
8536;SDS011;4306;50.210;10.628;2023-03-03T02:27:29;23.70;;;11.33;;
8536;SDS011;4306;50.210;10.628;2023-03-03T02:30:06;20.20;;;11.00;;
8536;SDS011;4306;50.210;10.628;2023-03-03T02:32:35;22.63;;;10.90;;
8536;SDS011;4306;50.210;10.628;2023-03-03T02:37:55;23.13;;;11.63;;
8536;SDS011;4306;50.210;10.628;2023-03-03T02:40:28;23.50;;;11.57;;
8536;SDS011;4306;50.210;10.628;2023-03-03T02:43:01;23.27;;;11.77;;
8536;SDS011;4306;50.210;10.628;2023-03-03T02:45:30;27.13;;;12.87;;
8536;SDS011;4306;50.210;10.628;2023-03-03T02:47:57;26.27;;;12.20;;
8536;SDS011;4306;50.210;10.628;2023-03-03T02:50:24;26.27;;;12.60;;
8536;SDS011;4306;50.210;10.628;2023-03-03T02:52:51;26.27;;;12.57;;
8536;SDS011;4306;50.210;10.628;2023-03-03T02:55:18;26.33;;;12.60;;
8536;SDS011;4306;50.210;10.628;2023-03-03T02:57:45;24.33;;;12.60;;
8536;SDS011;4306;50.210;10.628;2023-03-03T03:00:13;34.00;;;14.50;;
8536;SDS011;4306;50.210;10.628;2023-03-03T03:02:40;28.87;;;13.37;;
8536;SDS011;4306;50.210;10.628;2023-03-03T03:05:07;32.33;;;14.37;;
8536;SDS011;4306;50.210;10.628;2023-03-03T03:07:34;25.20;;;13.27;;
8536;SDS011;4306;50.210;10.628;2023-03-03T03:10:01;32.90;;;14.60;;
8536;SDS011;4306;50.210;10.628;2023-03-03T03:12:28;30.10;;;13.87;;
8536;SDS011;4306;50.210;10.628;2023-03-03T03:14:55;36.33;;;15.07;;
8536;SDS011;4306;50.210;10.628;2023-03-03T03:17:23;39.97;;;16.07;;
8536;SDS011;4306;50.210;10.628;2023-03-03T03:19:51;43.03;;;14.77;;
8536;SDS011;4306;50.210;10.628;2023-03-03T03:22:17;38.93;;;16.17;;
8536;SDS011;4306;50.210;10.628;2023-03-03T03:24:44;29.13;;;14.73;;
8536;SDS011;4306;50.210;10.628;2023-03-03T03:27:11;26.80;;;13.80;;
8536;SDS011;4306;50.210;10.628;2023-03-03T03:29:38;30.30;;;14.90;;
8536;SDS011;4306;50.210;10.628;2023-03-03T03:32:05;31.87;;;14.13;;
8536;SDS011;4306;50.210;10.628;2023-03-03T03:34:33;29.33;;;13.07;;
8536;SDS011;4306;50.210;10.628;2023-03-03T03:37:00;27.00;;;12.90;;
8536;SDS011;4306;50.210;10.628;2023-03-03T03:39:27;25.53;;;12.27;;
8536;SDS011;4306;50.210;10.628;2023-03-03T03:41:54;31.60;;;13.40;;
8536;SDS011;4306;50.210;10.628;2023-03-03T03:44:21;32.93;;;14.20;;
8536;SDS011;4306;50.210;10.628;2023-03-03T03:46:49;29.30;;;13.87;;
8536;SDS011;4306;50.210;10.628;2023-03-03T03:49:16;26.97;;;13.10;;
8536;SDS011;4306;50.210;10.628;2023-03-03T03:51:44;27.57;;;14.20;;
8536;SDS011;4306;50.210;10.628;2023-03-03T03:54:11;32.27;;;14.80;;
8536;SDS011;4306;50.210;10.628;2023-03-03T03:56:38;35.63;;;15.90;;
8536;SDS011;4306;50.210;10.628;2023-03-03T03:59:05;30.07;;;15.83;;
8536;SDS011;4306;50.210;10.628;2023-03-03T04:01:32;32.77;;;15.70;;
8536;SDS011;4306;50.210;10.628;2023-03-03T04:03:59;32.80;;;15.40;;
8536;SDS011;4306;50.210;10.628;2023-03-03T04:06:27;33.43;;;15.47;;
8536;SDS011;4306;50.210;10.628;2023-03-03T04:08:55;31.13;;;14.90;;
8536;SDS011;4306;50.210;10.628;2023-03-03T04:11:22;34.20;;;15.20;;
8536;SDS011;4306;50.210;10.628;2023-03-03T04:13:49;34.90;;;15.87;;
8536;SDS011;4306;50.210;10.628;2023-03-03T04:16:16;31.97;;;15.13;;
8536;SDS011;4306;50.210;10.628;2023-03-03T04:18:42;36.00;;;14.93;;
8536;SDS011;4306;50.210;10.628;2023-03-03T04:21:10;32.23;;;15.50;;
8536;SDS011;4306;50.210;10.628;2023-03-03T04:23:38;38.40;;;16.83;;
8536;SDS011;4306;50.210;10.628;2023-03-03T04:26:06;34.17;;;16.47;;
8536;SDS011;4306;50.210;10.628;2023-03-03T04:28:34;38.87;;;16.97;;
8536;SDS011;4306;50.210;10.628;2023-03-03T04:31:01;45.83;;;20.57;;
8536;SDS011;4306;50.210;10.628;2023-03-03T04:33:28;38.93;;;19.00;;
8536;SDS011;4306;50.210;10.628;2023-03-03T04:35:55;39.47;;;18.23;;
8536;SDS011;4306;50.210;10.628;2023-03-03T04:38:22;39.73;;;18.90;;
8536;SDS011;4306;50.210;10.628;2023-03-03T04:40:50;39.60;;;17.80;;
8536;SDS011;4306;50.210;10.628;2023-03-03T04:43:18;34.23;;;17.00;;
8536;SDS011;4306;50.210;10.628;2023-03-03T04:45:45;36.17;;;17.20;;
8536;SDS011;4306;50.210;10.628;2023-03-03T04:48:12;37.40;;;17.40;;
8536;SDS011;4306;50.210;10.628;2023-03-03T04:50:40;40.37;;;16.67;;
8536;SDS011;4306;50.210;10.628;2023-03-03T04:53:07;34.73;;;17.23;;
8536;SDS011;4306;50.210;10.628;2023-03-03T04:55:35;34.17;;;16.20;;
8536;SDS011;4306;50.210;10.628;2023-03-03T04:58:02;35.97;;;16.67;;
8536;SDS011;4306;50.210;10.628;2023-03-03T05:00:30;33.77;;;16.80;;
8536;SDS011;4306;50.210;10.628;2023-03-03T05:02:57;31.60;;;15.10;;
8536;SDS011;4306;50.210;10.628;2023-03-03T05:05:24;36.47;;;16.17;;
8536;SDS011;4306;50.210;10.628;2023-03-03T05:07:51;29.00;;;15.77;;
8536;SDS011;4306;50.210;10.628;2023-03-03T05:10:18;37.73;;;17.37;;
8536;SDS011;4306;50.210;10.628;2023-03-03T05:12:45;34.80;;;16.50;;
8536;SDS011;4306;50.210;10.628;2023-03-03T05:15:12;38.10;;;18.10;;
8536;SDS011;4306;50.210;10.628;2023-03-03T05:17:40;32.60;;;15.87;;
8536;SDS011;4306;50.210;10.628;2023-03-03T05:20:08;31.53;;;15.97;;
8536;SDS011;4306;50.210;10.628;2023-03-03T05:22:36;37.00;;;15.80;;
8536;SDS011;4306;50.210;10.628;2023-03-03T05:25:03;36.93;;;17.03;;
8536;SDS011;4306;50.210;10.628;2023-03-03T05:27:31;36.30;;;16.37;;
8536;SDS011;4306;50.210;10.628;2023-03-03T05:29:58;38.53;;;17.03;;
8536;SDS011;4306;50.210;10.628;2023-03-03T05:32:25;38.77;;;17.03;;
8536;SDS011;4306;50.210;10.628;2023-03-03T05:34:53;40.00;;;18.10;;
8536;SDS011;4306;50.210;10.628;2023-03-03T05:37:20;40.43;;;17.23;;
8536;SDS011;4306;50.210;10.628;2023-03-03T05:39:48;36.00;;;17.37;;
8536;SDS011;4306;50.210;10.628;2023-03-03T05:42:15;42.13;;;18.03;;
8536;SDS011;4306;50.210;10.628;2023-03-03T05:44:42;36.47;;;17.87;;
8536;SDS011;4306;50.210;10.628;2023-03-03T05:47:09;44.70;;;17.83;;
8536;SDS011;4306;50.210;10.628;2023-03-03T05:49:36;44.47;;;19.03;;
8536;SDS011;4306;50.210;10.628;2023-03-03T05:52:04;35.30;;;17.30;;
8536;SDS011;4306;50.210;10.628;2023-03-03T05:54:33;40.83;;;18.17;;
8536;SDS011;4306;50.210;10.628;2023-03-03T05:56:59;41.67;;;18.47;;
8536;SDS011;4306;50.210;10.628;2023-03-03T05:59:27;43.70;;;17.50;;
8536;SDS011;4306;50.210;10.628;2023-03-03T06:01:53;46.40;;;17.93;;
8536;SDS011;4306;50.210;10.628;2023-03-03T06:04:20;40.17;;;18.90;;
8536;SDS011;4306;50.210;10.628;2023-03-03T06:06:47;46.53;;;18.80;;
8536;SDS011;4306;50.210;10.628;2023-03-03T06:09:16;37.07;;;17.33;;
8536;SDS011;4306;50.210;10.628;2023-03-03T06:11:44;39.60;;;16.93;;
8536;SDS011;4306;50.210;10.628;2023-03-03T06:14:11;38.40;;;17.03;;
8536;SDS011;4306;50.210;10.628;2023-03-03T06:16:38;40.53;;;17.83;;
8536;SDS011;4306;50.210;10.628;2023-03-03T06:19:05;39.00;;;17.30;;
8536;SDS011;4306;50.210;10.628;2023-03-03T06:21:32;48.20;;;20.87;;
8536;SDS011;4306;50.210;10.628;2023-03-03T06:23:58;46.67;;;21.10;;
8536;SDS011;4306;50.210;10.628;2023-03-03T06:26:27;40.77;;;18.50;;
8536;SDS011;4306;50.210;10.628;2023-03-03T06:28:54;39.83;;;18.70;;
8536;SDS011;4306;50.210;10.628;2023-03-03T06:31:21;45.03;;;18.60;;
8536;SDS011;4306;50.210;10.628;2023-03-03T06:33:48;36.83;;;17.03;;
8536;SDS011;4306;50.210;10.628;2023-03-03T06:36:16;35.87;;;16.37;;
8536;SDS011;4306;50.210;10.628;2023-03-03T06:38:44;33.50;;;16.30;;
8536;SDS011;4306;50.210;10.628;2023-03-03T06:41:11;40.47;;;17.37;;
8536;SDS011;4306;50.210;10.628;2023-03-03T06:43:39;41.77;;;17.63;;
8536;SDS011;4306;50.210;10.628;2023-03-03T06:46:06;39.37;;;17.70;;
8536;SDS011;4306;50.210;10.628;2023-03-03T06:48:33;38.47;;;17.03;;
8536;SDS011;4306;50.210;10.628;2023-03-03T06:51:00;44.23;;;18.87;;
8536;SDS011;4306;50.210;10.628;2023-03-03T06:53:29;43.93;;;18.93;;
8536;SDS011;4306;50.210;10.628;2023-03-03T06:55:59;40.43;;;19.10;;
8536;SDS011;4306;50.210;10.628;2023-03-03T06:58:27;40.00;;;17.73;;
8536;SDS011;4306;50.210;10.628;2023-03-03T07:00:57;38.07;;;17.03;;
8536;SDS011;4306;50.210;10.628;2023-03-03T07:03:26;34.30;;;15.80;;
8536;SDS011;4306;50.210;10.628;2023-03-03T07:05:57;39.23;;;16.73;;
8536;SDS011;4306;50.210;10.628;2023-03-03T07:08:25;49.53;;;22.63;;
8536;SDS011;4306;50.210;10.628;2023-03-03T07:10:58;53.47;;;25.20;;
8536;SDS011;4306;50.210;10.628;2023-03-03T07:13:33;48.90;;;21.50;;
8536;SDS011;4306;50.210;10.628;2023-03-03T07:16:08;40.63;;;19.20;;
8536;SDS011;4306;50.210;10.628;2023-03-03T07:18:39;47.73;;;19.93;;
8536;SDS011;4306;50.210;10.628;2023-03-03T07:21:15;42.90;;;20.60;;
8536;SDS011;4306;50.210;10.628;2023-03-03T07:23:43;36.50;;;16.57;;
8536;SDS011;4306;50.210;10.628;2023-03-03T07:26:12;40.73;;;18.23;;
8536;SDS011;4306;50.210;10.628;2023-03-03T07:28:41;33.07;;;16.67;;
8536;SDS011;4306;50.210;10.628;2023-03-03T07:31:22;40.00;;;16.97;;
8536;SDS011;4306;50.210;10.628;2023-03-03T07:33:53;36.37;;;17.00;;
8536;SDS011;4306;50.210;10.628;2023-03-03T07:36:25;32.87;;;16.17;;
8536;SDS011;4306;50.210;10.628;2023-03-03T07:38:54;35.40;;;16.33;;
8536;SDS011;4306;50.210;10.628;2023-03-03T07:41:24;35.43;;;16.17;;
8536;SDS011;4306;50.210;10.628;2023-03-03T07:43:51;40.83;;;17.10;;
8536;SDS011;4306;50.210;10.628;2023-03-03T07:46:23;34.50;;;16.30;;
8536;SDS011;4306;50.210;10.628;2023-03-03T07:48:53;54.77;;;22.80;;
8536;SDS011;4306;50.210;10.628;2023-03-03T07:51:23;47.27;;;23.03;;
8536;SDS011;4306;50.210;10.628;2023-03-03T07:53:52;40.30;;;17.90;;
8536;SDS011;4306;50.210;10.628;2023-03-03T07:56:27;35.17;;;17.03;;
8536;SDS011;4306;50.210;10.628;2023-03-03T07:58:56;35.77;;;17.10;;
8536;SDS011;4306;50.210;10.628;2023-03-03T08:01:40;32.10;;;14.93;;
8536;SDS011;4306;50.210;10.628;2023-03-03T08:04:12;33.47;;;16.03;;
8536;SDS011;4306;50.210;10.628;2023-03-03T08:06:46;30.70;;;15.57;;
8536;SDS011;4306;50.210;10.628;2023-03-03T08:09:26;30.83;;;14.60;;
8536;SDS011;4306;50.210;10.628;2023-03-03T08:12:09;32.67;;;15.50;;
8536;SDS011;4306;50.210;10.628;2023-03-03T08:14:54;29.30;;;14.13;;
8536;SDS011;4306;50.210;10.628;2023-03-03T08:17:25;33.20;;;15.10;;
8536;SDS011;4306;50.210;10.628;2023-03-03T08:19:57;39.33;;;19.10;;
8536;SDS011;4306;50.210;10.628;2023-03-03T08:22:26;37.07;;;17.57;;
8536;SDS011;4306;50.210;10.628;2023-03-03T08:24:56;25.93;;;13.93;;
8536;SDS011;4306;50.210;10.628;2023-03-03T08:27:23;33.07;;;18.00;;
8536;SDS011;4306;50.210;10.628;2023-03-03T08:29:50;34.17;;;17.67;;
8536;SDS011;4306;50.210;10.628;2023-03-03T08:32:17;31.57;;;17.17;;
8536;SDS011;4306;50.210;10.628;2023-03-03T08:34:45;39.80;;;19.40;;
8536;SDS011;4306;50.210;10.628;2023-03-03T08:37:12;33.00;;;17.63;;
8536;SDS011;4306;50.210;10.628;2023-03-03T08:39:38;32.53;;;17.03;;
8536;SDS011;4306;50.210;10.628;2023-03-03T08:42:05;32.63;;;15.60;;
8536;SDS011;4306;50.210;10.628;2023-03-03T08:44:32;28.17;;;14.95;;
8536;SDS011;4306;50.210;10.628;2023-03-03T08:46:59;30.97;;;15.80;;
8536;SDS011;4306;50.210;10.628;2023-03-03T08:49:26;31.30;;;15.43;;
8536;SDS011;4306;50.210;10.628;2023-03-03T08:51:54;30.23;;;15.55;;
8536;SDS011;4306;50.210;10.628;2023-03-03T08:54:21;28.20;;;14.80;;
8536;SDS011;4306;50.210;10.628;2023-03-03T08:56:48;31.35;;;14.93;;
8536;SDS011;4306;50.210;10.628;2023-03-03T08:59:16;27.23;;;14.82;;
8536;SDS011;4306;50.210;10.628;2023-03-03T09:01:43;31.42;;;16.17;;
8536;SDS011;4306;50.210;10.628;2023-03-03T09:04:10;29.65;;;15.98;;
8536;SDS011;4306;50.210;10.628;2023-03-03T09:06:37;31.80;;;15.20;;
8536;SDS011;4306;50.210;10.628;2023-03-03T09:09:05;24.97;;;13.37;;
8536;SDS011;4306;50.210;10.628;2023-03-03T09:11:32;25.13;;;13.48;;
8536;SDS011;4306;50.210;10.628;2023-03-03T09:14:01;27.73;;;13.50;;
8536;SDS011;4306;50.210;10.628;2023-03-03T09:16:36;28.35;;;15.65;;
8536;SDS011;4306;50.210;10.628;2023-03-03T09:21:57;27.10;;;14.13;;
8536;SDS011;4306;50.210;10.628;2023-03-03T09:24:31;25.17;;;14.33;;
8536;SDS011;4306;50.210;10.628;2023-03-03T09:27:01;25.23;;;14.20;;
8536;SDS011;4306;50.210;10.628;2023-03-03T09:29:37;26.85;;;13.68;;
8536;SDS011;4306;50.210;10.628;2023-03-03T09:32:09;27.95;;;14.45;;
8536;SDS011;4306;50.210;10.628;2023-03-03T09:34:47;25.73;;;13.60;;
8536;SDS011;4306;50.210;10.628;2023-03-03T09:37:15;24.80;;;13.57;;
8536;SDS011;4306;50.210;10.628;2023-03-03T09:39:49;22.55;;;12.20;;
8536;SDS011;4306;50.210;10.628;2023-03-03T09:42:30;20.70;;;11.23;;
8536;SDS011;4306;50.210;10.628;2023-03-03T09:48:28;23.55;;;12.05;;
8536;SDS011;4306;50.210;10.628;2023-03-03T09:51:22;21.33;;;11.77;;
8536;SDS011;4306;50.210;10.628;2023-03-03T09:54:10;22.13;;;12.88;;
8536;SDS011;4306;50.210;10.628;2023-03-03T09:56:57;22.52;;;11.27;;
8536;SDS011;4306;50.210;10.628;2023-03-03T09:59:34;26.85;;;14.57;;
8536;SDS011;4306;50.210;10.628;2023-03-03T10:02:20;25.50;;;12.88;;
8536;SDS011;4306;50.210;10.628;2023-03-03T10:05:04;23.80;;;11.95;;
8536;SDS011;4306;50.210;10.628;2023-03-03T10:07:41;25.63;;;13.23;;
8536;SDS011;4306;50.210;10.628;2023-03-03T10:10:23;28.42;;;12.77;;
8536;SDS011;4306;50.210;10.628;2023-03-03T10:13:10;24.15;;;11.27;;
8536;SDS011;4306;50.210;10.628;2023-03-03T10:15:50;23.98;;;12.85;;
8536;SDS011;4306;50.210;10.628;2023-03-03T10:18:28;23.85;;;12.48;;
8536;SDS011;4306;50.210;10.628;2023-03-03T10:21:04;23.77;;;11.77;;
8536;SDS011;4306;50.210;10.628;2023-03-03T10:23:47;19.80;;;10.18;;
8536;SDS011;4306;50.210;10.628;2023-03-03T10:26:21;21.65;;;11.48;;
8536;SDS011;4306;50.210;10.628;2023-03-03T10:29:06;22.73;;;12.20;;
8536;SDS011;4306;50.210;10.628;2023-03-03T10:31:49;22.17;;;11.02;;
8536;SDS011;4306;50.210;10.628;2023-03-03T10:37:30;18.05;;;10.07;;
8536;SDS011;4306;50.210;10.628;2023-03-03T10:40:05;20.15;;;10.60;;
8536;SDS011;4306;50.210;10.628;2023-03-03T10:42:48;16.67;;;9.50;;
8536;SDS011;4306;50.210;10.628;2023-03-03T10:45:40;18.40;;;10.40;;
8536;SDS011;4306;50.210;10.628;2023-03-03T10:48:22;18.25;;;9.48;;
8536;SDS011;4306;50.210;10.628;2023-03-03T10:51:00;20.88;;;11.05;;
8536;SDS011;4306;50.210;10.628;2023-03-03T10:53:34;18.20;;;9.82;;
8536;SDS011;4306;50.210;10.628;2023-03-03T10:56:14;18.77;;;10.02;;
8536;SDS011;4306;50.210;10.628;2023-03-03T10:59:00;15.50;;;9.32;;
8536;SDS011;4306;50.210;10.628;2023-03-03T11:01:39;15.98;;;9.20;;
8536;SDS011;4306;50.210;10.628;2023-03-03T11:04:23;16.45;;;9.50;;
8536;SDS011;4306;50.210;10.628;2023-03-03T11:07:05;17.70;;;9.43;;
8536;SDS011;4306;50.210;10.628;2023-03-03T11:12:32;18.63;;;10.10;;
8536;SDS011;4306;50.210;10.628;2023-03-03T11:15:28;16.17;;;8.73;;
8536;SDS011;4306;50.210;10.628;2023-03-03T11:18:05;16.58;;;9.68;;
8536;SDS011;4306;50.210;10.628;2023-03-03T11:20:41;24.70;;;14.05;;
8536;SDS011;4306;50.210;10.628;2023-03-03T11:23:21;21.75;;;13.18;;
8536;SDS011;4306;50.210;10.628;2023-03-03T11:26:08;18.95;;;9.65;;
8536;SDS011;4306;50.210;10.628;2023-03-03T11:28:45;16.95;;;10.18;;
8536;SDS011;4306;50.210;10.628;2023-03-03T11:31:28;16.42;;;9.32;;
8536;SDS011;4306;50.210;10.628;2023-03-03T11:34:07;15.25;;;8.88;;
8536;SDS011;4306;50.210;10.628;2023-03-03T11:36:49;16.35;;;9.13;;
8536;SDS011;4306;50.210;10.628;2023-03-03T11:39:22;16.33;;;8.85;;
8536;SDS011;4306;50.210;10.628;2023-03-03T11:41:53;17.05;;;9.35;;
8536;SDS011;4306;50.210;10.628;2023-03-03T11:44:28;14.18;;;8.63;;
8536;SDS011;4306;50.210;10.628;2023-03-03T11:46:58;15.13;;;8.57;;
8536;SDS011;4306;50.210;10.628;2023-03-03T11:49:32;13.82;;;8.20;;
8536;SDS011;4306;50.210;10.628;2023-03-03T11:52:09;14.93;;;8.00;;
8536;SDS011;4306;50.210;10.628;2023-03-03T11:54:45;13.60;;;7.45;;
8536;SDS011;4306;50.210;10.628;2023-03-03T11:57:18;12.38;;;7.25;;
8536;SDS011;4306;50.210;10.628;2023-03-03T11:59:49;13.57;;;7.85;;
8536;SDS011;4306;50.210;10.628;2023-03-03T12:02:37;14.63;;;8.35;;
8536;SDS011;4306;50.210;10.628;2023-03-03T12:05:16;12.95;;;7.35;;
8536;SDS011;4306;50.210;10.628;2023-03-03T12:07:58;14.02;;;8.15;;
8536;SDS011;4306;50.210;10.628;2023-03-03T12:10:34;11.25;;;6.88;;
8536;SDS011;4306;50.210;10.628;2023-03-03T12:13:08;11.63;;;6.55;;
8536;SDS011;4306;50.210;10.628;2023-03-03T12:15:44;10.95;;;6.20;;
8536;SDS011;4306;50.210;10.628;2023-03-03T12:21:29;12.63;;;6.03;;
8536;SDS011;4306;50.210;10.628;2023-03-03T12:24:07;11.18;;;6.32;;
8536;SDS011;4306;50.210;10.628;2023-03-03T12:26:45;15.27;;;6.30;;
8536;SDS011;4306;50.210;10.628;2023-03-03T12:29:20;10.43;;;5.28;;
8536;SDS011;4306;50.210;10.628;2023-03-03T12:31:54;9.45;;;5.43;;
8536;SDS011;4306;50.210;10.628;2023-03-03T12:34:31;11.05;;;6.15;;
8536;SDS011;4306;50.210;10.628;2023-03-03T12:37:05;10.63;;;5.93;;
8536;SDS011;4306;50.210;10.628;2023-03-03T12:39:54;11.38;;;5.95;;
8536;SDS011;4306;50.210;10.628;2023-03-03T12:42:30;9.82;;;5.75;;
8536;SDS011;4306;50.210;10.628;2023-03-03T12:45:10;9.20;;;5.30;;
8536;SDS011;4306;50.210;10.628;2023-03-03T12:47:50;9.50;;;5.32;;
8536;SDS011;4306;50.210;10.628;2023-03-03T12:50:26;11.55;;;5.60;;
8536;SDS011;4306;50.210;10.628;2023-03-03T12:53:05;8.25;;;4.95;;
8536;SDS011;4306;50.210;10.628;2023-03-03T12:55:41;7.43;;;4.63;;
8536;SDS011;4306;50.210;10.628;2023-03-03T12:58:18;7.85;;;4.55;;
8536;SDS011;4306;50.210;10.628;2023-03-03T13:00:56;8.38;;;4.40;;
8536;SDS011;4306;50.210;10.628;2023-03-03T13:03:37;7.95;;;4.40;;
8536;SDS011;4306;50.210;10.628;2023-03-03T13:06:10;11.82;;;6.28;;
8536;SDS011;4306;50.210;10.628;2023-03-03T13:08:50;8.13;;;5.03;;
8536;SDS011;4306;50.210;10.628;2023-03-03T13:11:31;7.40;;;4.00;;
8536;SDS011;4306;50.210;10.628;2023-03-03T13:14:10;10.20;;;5.05;;
8536;SDS011;4306;50.210;10.628;2023-03-03T13:16:46;7.22;;;4.05;;
8536;SDS011;4306;50.210;10.628;2023-03-03T13:19:27;7.75;;;4.57;;
8536;SDS011;4306;50.210;10.628;2023-03-03T13:22:00;8.70;;;3.75;;
8536;SDS011;4306;50.210;10.628;2023-03-03T13:24:36;7.25;;;4.25;;
8536;SDS011;4306;50.210;10.628;2023-03-03T13:27:10;6.97;;;4.20;;
8536;SDS011;4306;50.210;10.628;2023-03-03T13:29:39;5.72;;;3.45;;
8536;SDS011;4306;50.210;10.628;2023-03-03T13:32:07;6.68;;;3.65;;
8536;SDS011;4306;50.210;10.628;2023-03-03T13:34:42;6.07;;;3.35;;
8536;SDS011;4306;50.210;10.628;2023-03-03T13:37:16;6.03;;;3.50;;
8536;SDS011;4306;50.210;10.628;2023-03-03T13:39:51;6.15;;;3.40;;
8536;SDS011;4306;50.210;10.628;2023-03-03T13:42:23;5.93;;;3.30;;
8536;SDS011;4306;50.210;10.628;2023-03-03T13:44:56;4.40;;;2.40;;
8536;SDS011;4306;50.210;10.628;2023-03-03T13:47:27;3.60;;;1.90;;
8536;SDS011;4306;50.210;10.628;2023-03-03T13:50:09;4.00;;;2.00;;
8536;SDS011;4306;50.210;10.628;2023-03-03T13:52:45;4.65;;;2.13;;
8536;SDS011;4306;50.210;10.628;2023-03-03T13:55:22;3.95;;;2.00;;
8536;SDS011;4306;50.210;10.628;2023-03-03T13:57:58;3.40;;;1.75;;
8536;SDS011;4306;50.210;10.628;2023-03-03T14:00:33;2.38;;;1.38;;
8536;SDS011;4306;50.210;10.628;2023-03-03T14:03:08;3.50;;;1.42;;
8536;SDS011;4306;50.210;10.628;2023-03-03T14:05:44;2.53;;;1.33;;
8536;SDS011;4306;50.210;10.628;2023-03-03T14:08:16;3.10;;;1.48;;
8536;SDS011;4306;50.210;10.628;2023-03-03T14:11:04;3.13;;;1.50;;
8536;SDS011;4306;50.210;10.628;2023-03-03T14:13:38;2.65;;;1.25;;
8536;SDS011;4306;50.210;10.628;2023-03-03T14:16:10;4.15;;;1.35;;
8536;SDS011;4306;50.210;10.628;2023-03-03T14:18:45;3.05;;;1.58;;
8536;SDS011;4306;50.210;10.628;2023-03-03T14:21:23;3.42;;;1.65;;
8536;SDS011;4306;50.210;10.628;2023-03-03T14:23:56;3.22;;;1.67;;
8536;SDS011;4306;50.210;10.628;2023-03-03T14:26:27;2.63;;;1.23;;
8536;SDS011;4306;50.210;10.628;2023-03-03T14:29:03;2.10;;;1.15;;
8536;SDS011;4306;50.210;10.628;2023-03-03T14:31:44;2.15;;;1.20;;
8536;SDS011;4306;50.210;10.628;2023-03-03T14:34:24;3.53;;;1.67;;
8536;SDS011;4306;50.210;10.628;2023-03-03T14:36:59;3.15;;;1.70;;
8536;SDS011;4306;50.210;10.628;2023-03-03T14:39:47;2.17;;;1.20;;
8536;SDS011;4306;50.210;10.628;2023-03-03T14:42:34;3.42;;;1.40;;
8536;SDS011;4306;50.210;10.628;2023-03-03T14:45:14;3.28;;;1.77;;
8536;SDS011;4306;50.210;10.628;2023-03-03T14:47:47;3.13;;;1.60;;
8536;SDS011;4306;50.210;10.628;2023-03-03T14:50:28;3.17;;;1.52;;
8536;SDS011;4306;50.210;10.628;2023-03-03T14:53:14;4.13;;;2.08;;
8536;SDS011;4306;50.210;10.628;2023-03-03T14:55:46;4.00;;;2.30;;
8536;SDS011;4306;50.210;10.628;2023-03-03T14:58:26;5.63;;;3.10;;
8536;SDS011;4306;50.210;10.628;2023-03-03T15:03:45;3.50;;;1.92;;
8536;SDS011;4306;50.210;10.628;2023-03-03T15:06:33;4.80;;;2.40;;
8536;SDS011;4306;50.210;10.628;2023-03-03T15:09:18;3.85;;;2.10;;
8536;SDS011;4306;50.210;10.628;2023-03-03T15:11:52;4.50;;;2.35;;
8536;SDS011;4306;50.210;10.628;2023-03-03T15:14:22;4.38;;;2.60;;
8536;SDS011;4306;50.210;10.628;2023-03-03T15:16:55;4.53;;;2.35;;
8536;SDS011;4306;50.210;10.628;2023-03-03T15:19:35;3.85;;;1.90;;
8536;SDS011;4306;50.210;10.628;2023-03-03T15:22:15;3.72;;;1.70;;
8536;SDS011;4306;50.210;10.628;2023-03-03T15:24:52;4.28;;;1.90;;
8536;SDS011;4306;50.210;10.628;2023-03-03T15:27:27;4.97;;;2.15;;
8536;SDS011;4306;50.210;10.628;2023-03-03T15:30:02;10.63;;;2.13;;
8536;SDS011;4306;50.210;10.628;2023-03-03T15:32:37;2.92;;;1.67;;
8536;SDS011;4306;50.210;10.628;2023-03-03T15:35:12;2.95;;;1.75;;